Galt, MO

8:09 PM CDT on July 29, 2014 (GMT -0500)
Lamoni Municipal (KLWD) Elev 1132 ft | 40.63 °N, 93.90 °W | Change Station

Current weather conditions updated 16 minutes ago

Clear
Clear
71 °F
Feels Like 71 °F
N
5
Wind Variable Wind from NNW

Tomorrow is forecast to be Warmer than today.

Today
High -- | Low -- °F
--% Chance of Precip.
Yesterday
High -- | Low -- °F
Precip. -- in
6:08 AM 8:30 PM
Waxing Crescent, 8% visible
Pressure 30.09 in
Visibility 10.0 miles
Clouds Clear
Dew Point 58 °F
Humidity 63%
Rainfall 0.00 in
Snow Depth Not available.
UV 0 out of 12
Pollen 6.60 out of 12
Air Quality Not available.
Flu Activity Not available.
METAR KLWD 300053Z AUTO 34004KT 10SM CLR 22/14 A3009 RMK AO2 SLP187 T02170144

More Conditions Fewer Conditions

Pressure 30.09 in
Visibility 10.0 miles
Clouds Clear
Dew Point 58 °F
Humidity 63%
Rainfall 0.00 in
Snow Depth Not available.
UV 0 out of 12
Pollen 6.60 out of 12
Air Quality Not available.
Flu Activity Not available.
METAR KLWD 300053Z AUTO 34004KT 10SM CLR 22/14 A3009 RMK AO2 SLP187 T02170144

More Conditions Fewer Conditions

10-Day Weather Forecast

Almanac

Astronomy

Jul. 29, 2014 Rise Set
Actual Time 6:08 AM CDT 8:30 PM CDT
Civil Twilight 5:38 AM CDT 9:01 PM CDT
Nautical Twilight 5:00 AM CDT 9:39 PM CDT
Astronomical Twilight 4:18 AM CDT 10:20 PM CDT
Moon 8:46 AM CDT (7/29) 9:43 PM CDT (7/29)
Length of Visible Light 15h 23m
Length of Day
14h 21m
Tomorrow will be 1m 55s shorter.
Waxing Crescent, 8% of the Moon is Illuminated
Today
Waxing Crescent
Aug 3
First Quarter
Aug 10
Full
Aug 17
Last Quarter
Aug 25
New

Today's Extremes

State Highs State Lows

Community

WunderPhotos

Upload Photos

1,738,939 photos uploaded!

Nearby

Snow Depth

Station Depth Elevation
No new snow has been reported.

Earthquake Activity

City Distance Mag. Time & Date
No recent earthquake activity has been reported nearby.
Minimum magnitude displayed is 2.5.

Coastal Water Temperatures

Place Temperature
No Stations Reporting

Nearby Weather Stations

Station Location Temp. Heat Index Dew Point Humidity Wind Precip. Elev Updated Type
trenton mo, Trenton, MO 73.6 °F 77 °F 59 °F 60% NW  at  3.5 mph 0.00 in / hr 850 ft 8:09 PM CDT Rapid Fire
North Central Missouri, Browning, MO 73.5 °F 76 °F 60 °F 63% NW  at  0.0 mph 0.00 in / hr 810 ft 8:09 PM CDT Rapid Fire
MesoWest SPICKARD , Gilman City, MO 75 °F 78 °F 55 °F 51% NW  at  4 mph 0.00 in / hr 911 ft 7:00 PM CDT MADIS
MesoWest COBURN , Jamesport, MO 80 °F 78 °F - - North  at  - 0.00 in / hr 901 ft 6:00 PM CDT MADIS
Unionville MO, Unionville, MO 69.4 °F - 60 °F 73% NW  at  1.6 mph 0.00 in / hr 1053 ft 8:09 PM CDT Rapid Fire

Show More Stations Show Fewer Stations